aviador You're here:

KABY Decoded Metar

ALBANY in GA, USA
Report Time2017-11-20 20:53:00
UTC Time2017-11-20 21:20:51
Flight Rules vfr VFR
Wind080° at 06 kt
W.Decomp.*RWY 04: 4.5 kt HW 4.0 kt RCW
RWY 16: 1.2 kt HW 5.9 kt LCW
W.Rank080° ranks 15
Current wind is below 080° avg. (6.2)
Visibility9999 m
Phenomena:N/A
Clouds:N/A
Expected CloudBase > 6,400 ft AGL from Temp-Dew spread
CeilingNone
Temp18°C (ISA +3)
Dew Point02°C (34% RH)
AAT14.1°C
QNH1020 hPa
Density Alt449 ft
Elevation190 ft
Report Wrong Elevation
Raw Report
METAR KABY 202053Z 08006KT 10SM CLR 18/02 A3013 RMK AO2 SLP203 6////
T01830017 $=

Extra information for KABY:More info

Metar Taf Metar & Taf Last 4 Metars F.Rules Stats Wind Profile Meteogram Temp Stats Airport Information Weather charts Add Link Nearby VenuesMetar ALERT Operation Metar Decoded Social comments

AIRNAV info for KABY